Mainesburg, Pennsylvania
Current Conditions -  °F | °C
As of 10:35 PM on Saturday 24 Jan 2015 (Local Time) from KN38 Reporting Station
Overcast Overcast  
Wind Chill: 15°   Ceiling: 1500
Heat Index: 27°   Visibility: 10mi
Dew Point: 23°   Wind: 14mph
Humidity: 86%   Direction: 260°W
Pressure: 29.5"   Gusts: 21mph
Location:  41.78°N, 77°W
Report Text: KN38 250335Z AUTO 26012G18KT 10SM OVC015 M03/M05 A2950 RMK AO2
Loading
Personal Weather Stations






























Interactive Weather Map New forecast layout! Learn more

10-Day Weather Forecast

Advertisements
Track Severe Weather on mobile